Time;durP1;ratioP1;P1;durP2;ratioP2;P2;SDS_P1;SDS_P2;PMS_P1;PMS_P2;Temp;Humidity;BMP_temperature;BMP_pressure;BME280_temperature;BME280_humidity;BME280_pressure;Samples;Min_cycle;Max_cycle;Signal;HPM_P1;HPM_P2
2022/09/20 00:00:40;;;;;;;4.00;3.00;;;22.00;62.40;;;;;;5103052;28;20032;-45
2022/09/20 00:03:07;;;;;;;3.13;2.92;;;22.00;62.40;;;;;;5102605;28;20028;-44
2022/09/20 00:05:34;;;;;;;3.42;3.13;;;22.00;62.50;;;;;;5107781;28;20027;-45
2022/09/20 00:08:04;;;;;;;5.03;3.30;;;22.00;62.60;;;;;;5103024;28;20053;-43
2022/09/20 00:10:34;;;;;;;3.08;2.88;;;22.00;62.60;;;;;;5100444;28;20130;-44
2022/09/20 00:13:01;;;;;;;3.22;2.97;;;22.00;62.70;;;;;;5102863;28;20024;-44
2022/09/20 00:15:28;;;;;;;3.83;3.25;;;22.00;62.80;;;;;;5101552;28;20031;-45
2022/09/20 00:17:54;;;;;;;3.28;2.97;;;22.00;62.90;;;;;;5103924;28;20609;-44
2022/09/20 00:20:20;;;;;;;3.60;3.30;;;22.00;63.00;;;;;;5104276;28;20122;-44
2022/09/20 00:22:49;;;;;;;2.20;2.03;;;22.10;63.20;;;;;;5086043;28;20028;-44
2022/09/20 00:25:16;;;;;;;3.30;3.00;;;22.10;63.20;;;;;;5105249;28;20504;-45
2022/09/20 00:27:42;;;;;;;2.92;2.72;;;22.10;63.30;;;;;;5103025;28;20032;-45
2022/09/20 00:30:09;;;;;;;3.40;3.10;;;22.10;63.40;;;;;;5105125;28;20100;-45
2022/09/20 00:32:35;;;;;;;4.22;3.20;;;22.10;63.40;;;;;;5100063;28;20051;-45
2022/09/20 00:35:07;;;;;;;4.03;3.20;;;22.10;63.50;;;;;;5103092;28;20028;-46
2022/09/20 00:37:38;;;;;;;4.15;3.45;;;22.10;63.50;;;;;;5101058;28;20024;-44
2022/09/20 00:40:05;;;;;;;3.55;3.25;;;22.10;63.50;;;;;;5102941;28;20044;-44
2022/09/20 00:42:31;;;;;;;3.30;3.10;;;22.10;63.70;;;;;;5103001;28;20080;-45
2022/09/20 00:45:02;;;;;;;3.65;3.35;;;22.20;63.70;;;;;;5102401;28;20031;-45
2022/09/20 00:47:51;;;;;;;3.50;3.20;;;22.20;63.70;;;;;;5086012;28;20023;-46
2022/09/20 00:50:32;;;;;;;3.20;2.90;;;22.20;63.70;;;;;;5102168;28;20024;-45
2022/09/20 00:53:20;;;;;;;3.60;3.22;;;22.20;63.60;;;;;;5102056;28;20502;-46
2022/09/20 00:55:53;;;;;;;3.28;3.00;;;22.20;63.80;;;;;;5082040;28;20038;-46
2022/09/20 00:58:19;;;;;;;3.75;3.45;;;22.20;63.80;;;;;;5084240;28;20559;-45
2022/09/20 01:00:45;;;;;;;3.33;3.03;;;22.20;63.80;;;;;;5083430;28;20047;-46
2022/09/20 01:03:12;;;;;;;3.38;3.08;;;22.30;64.00;;;;;;5103887;28;20082;-45
2022/09/20 01:05:38;;;;;;;3.33;3.03;;;22.30;64.00;;;;;;5083752;28;20040;-43
2022/09/20 01:08:04;;;;;;;3.60;3.30;;;22.30;64.20;;;;;;5102973;28;20061;-45
2022/09/20 01:10:31;;;;;;;4.70;3.22;;;22.30;64.40;;;;;;5099803;28;20023;-45
2022/09/20 01:12:57;;;;;;;3.80;3.50;;;22.30;64.60;;;;;;5084087;28;20106;-45
2022/09/20 01:15:24;;;;;;;3.72;3.42;;;22.30;64.60;;;;;;5102173;28;20062;-44
2022/09/20 01:17:51;;;;;;;3.65;3.35;;;22.40;64.70;;;;;;5102263;28;20392;-45
2022/09/20 01:20:21;;;;;;;;;;;22.40;64.70;;;;;;5085010;28;20040;-45
2022/09/20 01:22:57;;;;;;;4.72;3.45;;;22.40;64.70;;;;;;5084474;28;19912;-44
2022/09/20 01:25:41;;;;;;;4.45;3.55;;;22.40;64.90;;;;;;5100540;28;20593;-44
2022/09/20 01:28:07;;;;;;;3.90;3.45;;;22.40;65.10;;;;;;5102059;28;20024;-44
2022/09/20 01:30:40;;;;;;;3.88;3.58;;;22.40;65.00;;;;;;5084231;28;20020;-44
2022/09/20 01:33:25;;;;;;;3.70;3.40;;;22.40;65.00;;;;;;5084626;28;20732;-45
2022/09/20 01:35:52;;;;;;;3.40;3.00;;;22.40;64.90;;;;;;5082152;28;20053;-46
2022/09/20 01:38:36;;;;;;;3.80;3.50;;;22.50;64.90;;;;;;5082459;28;20035;-45
2022/09/20 01:41:16;;;;;;;4.32;3.35;;;22.50;64.90;;;;;;5082633;28;20028;-45
2022/09/20 01:43:46;;;;;;;4.13;3.75;;;22.50;64.90;;;;;;5099689;28;20040;-44
2022/09/20 01:46:31;;;;;;;3.80;3.50;;;22.50;64.80;;;;;;5083400;28;20071;-44
2022/09/20 01:49:35;;;;;;;3.45;3.15;;;22.50;64.80;;;;;;5101031;28;20046;-45
2022/09/20 01:52:17;;;;;;;5.85;3.58;;;22.50;64.70;;;;;;5096005;28;20040;-44
2022/09/20 01:55:04;;;;;;;4.03;3.60;;;22.50;64.60;;;;;;5100633;28;20782;-45
2022/09/20 01:58:05;;;;;;;3.70;3.40;;;22.60;64.70;;;;;;5099447;28;20038;-46
2022/09/20 02:00:38;;;;;;;4.07;3.72;;;22.60;64.60;;;;;;5018686;28;20088;-46
2022/09/20 02:03:32;;;;;;;4.20;3.90;;;22.60;64.60;;;;;;5000147;28;20042;-47
2022/09/20 02:06:31;;;;;;;4.20;3.90;;;22.60;64.60;;;;;;5003539;28;20022;-46
2022/09/20 02:09:22;;;;;;;3.83;3.53;;;22.60;64.50;;;;;;5006012;28;20025;-46
2022/09/20 02:12:13;;;;;;;3.78;3.47;;;22.60;64.60;;;;;;5019293;28;20038;-45
2022/09/20 02:14:50;;;;;;;3.90;3.60;;;22.60;64.60;;;;;;4999045;28;20034;-45
2022/09/20 02:17:34;;;;;;;4.40;4.00;;;22.60;64.60;;;;;;5018033;28;20068;-48
2022/09/20 02:20:09;;;;;;;4.00;3.70;;;22.70;64.70;;;;;;5018794;28;20068;-47
2022/09/20 02:22:59;;;;;;;4.30;3.90;;;22.60;64.60;;;;;;5006120;28;20041;-45
2022/09/20 02:25:28;;;;;;;4.05;3.75;;;22.70;64.80;;;;;;5001041;28;20081;-44
2022/09/20 02:28:00;;;;;;;4.20;3.85;;;22.70;64.90;;;;;;5019602;28;20026;-45
2022/09/20 02:30:48;;;;;;;4.43;4.10;;;22.70;65.00;;;;;;5021083;28;20638;-44
2022/09/20 02:33:17;;;;;;;3.88;3.58;;;22.70;65.00;;;;;;5016073;28;20113;-45
2022/09/20 02:35:58;;;;;;;4.38;3.97;;;22.70;65.00;;;;;;5044698;28;20384;-44
2022/09/20 02:38:47;;;;;;;4.40;4.10;;;22.70;65.00;;;;;;5099742;28;20092;-44
2022/09/20 02:41:31;;;;;;;4.70;4.30;;;22.70;65.30;;;;;;5084310;28;20028;-44
2022/09/20 02:44:31;;;;;;;4.25;3.85;;;22.70;65.40;;;;;;5099334;28;20031;-43
2022/09/20 02:47:12;;;;;;;4.18;3.88;;;22.80;65.50;;;;;;5099683;28;20032;-44
2022/09/20 02:49:38;;;;;;;4.13;3.83;;;22.80;65.40;;;;;;5082026;28;20032;-44
2022/09/20 02:52:17;;;;;;;4.00;3.70;;;22.80;65.40;;;;;;5100496;28;20032;-45
2022/09/20 02:54:52;;;;;;;4.53;4.13;;;22.80;65.30;;;;;;5097676;28;20032;-44
2022/09/20 02:57:36;;;;;;;4.13;3.72;;;22.80;65.30;;;;;;5081635;28;20024;-44
2022/09/20 03:00:13;;;;;;;4.10;3.78;;;22.80;65.20;;;;;;5080436;28;20040;-44
2022/09/20 03:02:39;;;;;;;;;;;22.80;65.20;;;;;;5067934;28;20055;-44
2022/09/20 03:05:08;;;;;;;4.20;3.80;;;22.80;65.10;;;;;;5102565;28;19908;-51
2022/09/20 03:07:50;;;;;;;4.25;3.92;;;22.80;65.10;;;;;;5102552;28;20110;-45
2022/09/20 03:10:54;;;;;;;4.55;4.15;;;22.80;65.10;;;;;;5084700;28;20017;-43
2022/09/20 03:13:41;;;;;;;4.70;4.30;;;22.90;65.00;;;;;;5078803;28;20028;-44
2022/09/20 03:16:39;;;;;;;4.55;4.15;;;22.90;65.00;;;;;;5102158;28;20393;-43
2022/09/20 03:19:43;;;;;;;4.55;4.15;;;22.90;64.90;;;;;;5086212;28;20028;-44
2022/09/20 03:22:19;;;;;;;4.68;4.28;;;22.90;64.90;;;;;;5085774;28;20102;-45
2022/09/20 03:25:10;;;;;;;4.22;3.90;;;22.90;64.80;;;;;;5082039;28;20021;-45
2022/09/20 03:28:18;;;;;;;4.55;4.15;;;22.90;64.70;;;;;;5097356;28;20024;-43
2022/09/20 03:31:06;;;;;;;4.15;3.85;;;22.90;64.70;;;;;;5097491;28;20029;-43
2022/09/20 03:34:01;;;;;;;4.78;4.38;;;22.90;64.60;;;;;;5083478;28;20052;-44
2022/09/20 03:36:36;;;;;;;4.63;4.22;;;22.90;64.60;;;;;;5070833;28;20028;-43
2022/09/20 03:40:00;;;;;;;4.35;3.97;;;22.90;64.50;;;;;;5095055;28;20039;-45
2022/09/20 03:42:29;;;;;;;4.40;4.10;;;22.90;64.50;;;;;;5016675;28;20033;-46
2022/09/20 03:45:07;;;;;;;4.63;4.22;;;22.90;64.40;;;;;;5016681;28;20045;-44
2022/09/20 03:48:01;;;;;;;4.22;3.92;;;22.90;64.40;;;;;;5014117;28;20034;-45
2022/09/20 03:50:40;;;;;;;4.72;4.32;;;22.90;64.50;;;;;;5019710;28;20026;-43
2022/09/20 03:53:39;;;;;;;5.20;4.80;;;22.90;64.50;;;;;;5017316;28;20126;-43
2022/09/20 03:56:24;;;;;;;4.63;4.22;;;22.90;64.40;;;;;;5014704;28;20061;-44
2022/09/20 03:59:15;;;;;;;4.80;4.40;;;22.90;64.40;;;;;;5017029;28;20044;-44
2022/09/20 04:02:06;;;;;;;4.75;4.35;;;22.90;64.40;;;;;;5000640;28;20398;-46
2022/09/20 04:04:38;;;;;;;5.10;4.60;;;23.00;64.50;;;;;;5015950;28;20057;-43
2022/09/20 04:07:35;;;;;;;4.95;4.55;;;22.90;64.40;;;;;;5020040;28;20482;-44
2022/09/20 04:10:16;;;;;;;4.60;4.20;;;23.00;65.20;;;;;;4987870;28;20040;-44
2022/09/20 04:13:08;;;;;;;4.72;4.32;;;23.00;64.50;;;;;;5049328;28;20043;-44
2022/09/20 04:15:56;;;;;;;5.32;4.82;;;23.00;64.60;;;;;;5083442;28;20119;-44
2022/09/20 04:18:36;;;;;;;4.60;4.20;;;23.00;64.80;;;;;;5101795;28;20090;-44
2022/09/20 04:21:05;;;;;;;5.15;4.75;;;23.00;64.80;;;;;;5097081;28;20519;-44
2022/09/20 04:23:40;;;;;;;4.88;4.47;;;23.00;64.80;;;;;;5082497;28;20059;-45
2022/09/20 04:26:07;;;;;;;5.03;4.63;;;23.00;64.90;;;;;;5099350;28;20025;-44
2022/09/20 04:28:47;;;;;;;4.80;4.40;;;23.00;64.80;;;;;;5081824;28;20032;-45
2022/09/20 04:31:58;;;;;;;4.75;4.35;;;23.00;64.80;;;;;;5068024;28;20028;-44
2022/09/20 04:37:32;;;;;;;4.82;4.38;;;23.00;64.70;;;;;;4983885;28;20029;-45
2022/09/20 04:40:20;;;;;;;5.32;4.93;;;23.00;64.70;;;;;;4998422;28;20046;-45
2022/09/20 04:43:10;;;;;;;5.25;4.85;;;23.00;64.70;;;;;;4986483;28;20038;-45
2022/09/20 04:45:58;;;;;;;4.90;4.50;;;23.00;64.60;;;;;;4999708;28;20110;-44
2022/09/20 04:48:43;;;;;;;5.07;4.63;;;23.00;64.60;;;;;;4983696;28;20034;-44
2022/09/20 04:51:20;;;;;;;5.25;4.85;;;23.00;64.60;;;;;;4999546;28;20041;-45
2022/09/20 04:54:06;;;;;;;5.22;4.72;;;23.00;64.50;;;;;;4999489;28;20030;-44
2022/09/20 04:56:35;;;;;;;4.78;4.38;;;23.00;64.50;;;;;;4999165;28;20621;-44
2022/09/20 04:59:09;;;;;;;5.22;4.82;;;23.00;64.40;;;;;;5000024;28;20038;-43
2022/09/20 05:01:50;;;;;;;5.20;4.70;;;23.00;64.40;;;;;;4981917;28;20384;-45
2022/09/20 05:04:49;;;;;;;5.53;4.60;;;23.00;64.40;;;;;;4984084;28;20029;-44
2022/09/20 05:07:43;;;;;;;5.07;4.68;;;23.00;64.30;;;;;;4984593;28;20030;-46
2022/09/20 05:10:23;;;;;;;5.43;5.03;;;23.00;64.30;;;;;;5100902;28;20019;-44
2022/09/20 05:13:10;;;;;;;5.28;4.88;;;23.00;64.30;;;;;;5082509;28;20036;-47
2022/09/20 05:16:05;;;;;;;5.10;4.70;;;23.00;64.30;;;;;;5101015;28;20024;-45
2022/09/20 05:18:46;;;;;;;5.25;4.85;;;23.00;64.30;;;;;;5082698;28;20024;-46
2022/09/20 05:21:32;;;;;;;5.25;4.85;;;23.00;64.30;;;;;;5068330;28;20028;-44
2022/09/20 05:24:10;;;;;;;5.25;4.85;;;23.00;64.30;;;;;;5079542;28;20120;-44
2022/09/20 05:26:39;;;;;;;5.72;5.20;;;23.00;64.30;;;;;;5082958;28;20028;-44
2022/09/20 05:29:23;;;;;;;5.13;4.72;;;23.10;64.30;;;;;;5101230;28;20047;-45
2022/09/20 05:32:06;;;;;;;5.13;4.70;;;23.00;64.20;;;;;;5081792;28;20044;-44
2022/09/20 05:35:04;;;;;;;5.50;5.07;;;23.00;64.30;;;;;;5085397;28;20059;-44
2022/09/20 05:37:45;;;;;;;5.00;4.60;;;23.00;64.50;;;;;;5080380;28;20070;-44
2022/09/20 05:40:11;;;;;;;5.50;5.00;;;23.00;64.50;;;;;;5065480;28;21104;-44
2022/09/20 05:43:06;;;;;;;5.07;4.67;;;23.00;64.60;;;;;;5084945;28;20095;-44
2022/09/20 05:45:51;;;;;;;4.82;4.43;;;23.00;64.60;;;;;;5082210;28;20033;-45
2022/09/20 05:48:25;;;;;;;5.47;4.97;;;23.00;64.60;;;;;;5102220;28;20024;-44
2022/09/20 05:51:07;;;;;;;4.95;4.55;;;23.00;64.50;;;;;;5081689;28;20032;-48
2022/09/20 05:54:07;;;;;;;5.65;5.15;;;23.00;64.50;;;;;;5083038;28;20031;-44
2022/09/20 05:56:59;;;;;;;5.40;4.90;;;23.00;64.40;;;;;;5101897;28;20095;-44
2022/09/20 05:59:47;;;;;;;4.90;4.50;;;23.00;64.40;;;;;;5082279;28;20047;-45
2022/09/20 06:02:31;;;;;;;5.32;4.82;;;23.00;64.40;;;;;;5106092;28;20058;-45
2022/09/20 06:05:10;;;;;;;5.55;5.05;;;23.00;64.30;;;;;;5101990;28;20028;-44
2022/09/20 06:07:44;;;;;;;5.18;4.78;;;23.00;64.30;;;;;;5098399;28;20095;-44
2022/09/20 06:10:41;;;;;;;4.80;4.40;;;23.00;64.40;;;;;;5101061;28;20035;-45
2022/09/20 06:13:41;;;;;;;4.78;4.38;;;23.00;64.40;;;;;;5100252;28;20044;-44
2022/09/20 06:16:13;;;;;;;5.82;5.32;;;23.00;64.40;;;;;;5082062;28;20035;-44
2022/09/20 06:18:46;;;;;;;5.70;5.20;;;23.00;64.30;;;;;;5066462;28;20064;-47
2022/09/20 06:21:49;;;;;;;5.50;4.97;;;23.00;64.30;;;;;;5082831;28;20040;-45
2022/09/20 06:24:31;;;;;;;5.63;5.10;;;23.00;64.30;;;;;;5100306;28;20032;-44
2022/09/20 06:26:58;;;;;;;5.30;4.90;;;23.00;64.20;;;;;;5099952;28;20087;-47
2022/09/20 06:29:34;;;;;;;4.93;4.53;;;23.00;64.30;;;;;;5099575;28;20521;-45
2022/09/20 06:32:00;;;;;;;5.00;4.60;;;23.00;64.30;;;;;;5048926;28;20182;-47
2022/09/20 06:34:27;;;;;;;5.37;4.87;;;23.00;64.20;;;;;;5100396;28;20024;-45
2022/09/20 06:43:13;;;;;;;5.20;4.70;;;23.00;64.20;;;;;;5098965;28;20035;-45
2022/09/20 06:45:41;;;;;;;5.18;4.78;;;23.00;64.20;;;;;;5100365;28;20413;-46
2022/09/20 06:48:12;;;;;;;5.25;4.85;;;23.00;64.20;;;;;;5099297;28;20028;-46
2022/09/20 06:50:38;;;;;;;5.47;5.07;;;23.00;64.20;;;;;;5099803;28;20032;-45
2022/09/20 06:53:05;;;;;;;5.18;4.78;;;22.90;64.10;;;;;;5100174;28;20062;-43
2022/09/20 06:55:36;;;;;;;;;;;23.00;64.20;;;;;;5100776;28;20028;-44
2022/09/20 06:58:02;;;;;;;5.57;5.13;;;22.90;64.20;;;;;;5098972;28;19912;-45
2022/09/20 07:00:29;;;;;;;5.53;5.05;;;22.90;64.30;;;;;;5100470;28;20043;-46
2022/09/20 07:02:55;;;;;;;5.63;5.13;;;22.90;64.30;;;;;;5101585;28;20024;-45
2022/09/20 07:05:23;;;;;;;5.10;4.70;;;22.90;64.40;;;;;;5100318;28;20261;-49
2022/09/20 07:07:49;;;;;;;5.40;4.97;;;22.90;64.40;;;;;;5098052;28;20025;-45
2022/09/20 07:10:15;;;;;;;5.38;4.97;;;22.90;64.40;;;;;;5099096;28;20564;-45
2022/09/20 07:12:41;;;;;;;5.47;5.00;;;22.90;64.50;;;;;;5100858;28;20036;-45
2022/09/20 07:15:08;;;;;;;5.53;5.05;;;22.90;64.40;;;;;;5080560;28;20777;-48
2022/09/20 07:17:34;;;;;;;5.22;4.82;;;22.90;64.50;;;;;;5099285;28;20046;-46
2022/09/20 07:20:01;;;;;;;5.50;5.10;;;22.90;64.60;;;;;;5099488;28;20040;-46
2022/09/20 07:22:27;;;;;;;5.57;5.10;;;22.90;64.70;;;;;;5099593;28;20046;-45
2022/09/20 07:24:53;;;;;;;5.88;5.32;;;22.90;64.90;;;;;;5099431;28;20036;-45
2022/09/20 07:27:20;;;;;;;5.50;5.10;;;22.90;64.90;;;;;;5100137;28;20103;-47
2022/09/20 07:29:46;;;;;;;5.90;5.40;;;22.90;65.00;;;;;;5099092;28;20056;-45
2022/09/20 07:32:14;;;;;;;5.68;5.18;;;22.90;65.10;;;;;;5100853;28;20303;-47
2022/09/20 07:34:40;;;;;;;5.30;4.90;;;22.90;65.00;;;;;;5100280;28;20029;-47
2022/09/20 07:37:06;;;;;;;5.40;4.93;;;22.90;65.10;;;;;;5099973;28;20115;-45
2022/09/20 07:39:32;;;;;;;5.45;4.95;;;22.90;65.00;;;;;;5098995;28;20289;-47
2022/09/20 07:42:00;;;;;;;5.43;5.03;;;22.90;64.80;;;;;;5099653;28;20044;-47
2022/09/20 07:44:26;;;;;;;;;;;22.90;65.00;;;;;;5098150;28;20054;-46
2022/09/20 07:46:54;;;;;;;5.32;4.82;;;22.90;65.00;;;;;;5100747;28;19938;-47
2022/09/20 07:49:21;;;;;;;5.53;5.03;;;22.80;64.90;;;;;;5099372;28;20036;-47
2022/09/20 07:51:48;;;;;;;5.50;5.10;;;22.80;64.90;;;;;;5097965;28;20497;-45
2022/09/20 07:54:14;;;;;;;5.80;5.30;;;22.80;64.90;;;;;;5101602;28;20079;-45
2022/09/20 07:56:40;;;;;;;5.37;4.93;;;22.80;64.80;;;;;;5100793;28;20028;-47
2022/09/20 07:59:09;;;;;;;5.15;4.75;;;22.80;64.90;;;;;;5099718;28;20043;-46
2022/09/20 08:01:35;;;;;;;5.30;4.88;;;22.80;64.90;;;;;;5098471;28;20024;-45
2022/09/20 08:04:03;;;;;;;5.88;5.38;;;22.80;65.00;;;;;;5104279;28;20083;-43
2022/09/20 08:06:29;;;;;;;5.72;5.22;;;22.80;65.00;;;;;;5103645;28;20050;-43
2022/09/20 08:08:56;;;;;;;5.72;5.20;;;22.80;65.00;;;;;;5103096;28;20032;-44
2022/09/20 08:11:28;;;;;;;5.90;5.40;;;22.80;65.10;;;;;;5104610;28;20043;-46
2022/09/20 08:13:54;;;;;;;5.93;5.40;;;22.80;65.10;;;;;;5102640;28;20083;-40
2022/09/20 08:16:21;;;;;;;5.47;4.97;;;22.80;65.00;;;;;;5103284;28;20024;-41
2022/09/20 08:18:54;;;;;;;5.70;5.30;;;22.80;65.10;;;;;;5103062;28;20032;-46
2022/09/20 08:21:20;;;;;;;5.85;5.35;;;22.80;65.10;;;;;;5103927;28;20024;-40
2022/09/20 08:23:47;;;;;;;16.98;6.40;;;22.80;65.20;;;;;;5103261;28;20083;-41
2022/09/20 08:26:17;;;;;;;9.30;6.10;;;22.80;65.40;;;;;;5102978;28;20039;-44
2022/09/20 08:28:44;;;;;;;8.48;5.85;;;22.70;65.50;;;;;;5102670;28;20036;-45
2022/09/20 08:31:11;;;;;;;;;;;22.80;65.70;;;;;;5102544;28;20043;-46
2022/09/20 08:33:38;;;;;;;8.17;5.73;;;22.70;65.70;;;;;;5106430;28;19970;-44
2022/09/20 08:36:05;;;;;;;7.07;5.85;;;22.70;66.20;;;;;;5098249;28;20012;-44
2022/09/20 08:38:31;;;;;;;;;;;22.70;66.20;;;;;;5078726;28;20039;-43
2022/09/20 08:41:10;;;;;;;9.43;6.28;;;22.70;66.20;;;;;;5097639;28;19908;-43
2022/09/20 08:43:44;;;;;;;7.18;5.65;;;22.70;66.20;;;;;;5100115;28;20036;-43
2022/09/20 08:46:13;;;;;;;9.52;5.97;;;22.70;66.20;;;;;;5094820;28;20043;-43
2022/09/20 08:48:40;;;;;;;7.90;5.80;;;22.70;66.00;;;;;;5084465;28;20032;-43
2022/09/20 08:51:09;;;;;;;6.30;5.70;;;22.70;65.90;;;;;;5102617;28;20032;-44
2022/09/20 08:53:35;;;;;;;8.15;6.63;;;22.70;65.90;;;;;;5084486;28;20036;-44
2022/09/20 08:56:03;;;;;;;7.90;5.80;;;22.70;65.80;;;;;;5084446;28;20035;-44
2022/09/20 08:58:30;;;;;;;8.38;6.18;;;22.70;65.70;;;;;;5102400;28;20123;-45
2022/09/20 09:00:57;;;;;;;7.50;6.07;;;22.70;65.70;;;;;;5080942;28;20119;-44
2022/09/20 09:03:24;;;;;;;9.27;6.10;;;22.70;65.60;;;;;;5102143;28;20039;-45
2022/09/20 09:05:52;;;;;;;7.25;6.05;;;22.70;65.50;;;;;;5102681;28;20028;-45
2022/09/20 09:08:20;;;;;;;7.07;5.40;;;22.70;65.50;;;;;;5084170;28;20416;-46
2022/09/20 09:10:57;;;;;;;6.47;5.88;;;22.60;65.40;;;;;;5083983;28;20611;-43
2022/09/20 09:13:54;;;;;;;6.68;6.00;;;22.60;65.30;;;;;;5083351;28;20032;-44
2022/09/20 09:16:22;;;;;;;6.10;5.50;;;22.60;65.20;;;;;;5076259;28;20038;-44
2022/09/20 09:18:50;;;;;;;7.20;5.80;;;22.60;65.20;;;;;;5101005;28;20043;-44
2022/09/20 09:21:27;;;;;;;7.20;5.65;;;22.60;65.10;;;;;;5084200;28;20032;-44
2022/09/20 09:24:03;;;;;;;6.50;5.90;;;22.60;65.10;;;;;;5094559;28;20035;-44
2022/09/20 09:26:39;;;;;;;5.93;5.32;;;22.60;65.00;;;;;;5109192;28;20028;-45
2022/09/20 09:29:14;;;;;;;6.40;5.55;;;22.60;65.70;;;;;;5103807;28;20091;-45
2022/09/20 09:31:40;;;;;;;7.30;5.90;;;22.60;64.90;;;;;;5088805;28;20041;-46
2022/09/20 09:34:25;;;;;;;6.10;5.38;;;22.50;64.80;;;;;;5085562;28;20044;-44
2022/09/20 09:36:53;;;;;;;6.80;6.13;;;22.50;64.80;;;;;;5080838;28;20028;-45
2022/09/20 09:39:23;;;;;;;6.20;5.60;;;22.50;64.70;;;;;;5086899;28;20083;-44
2022/09/20 09:41:49;;;;;;;6.32;5.57;;;22.50;64.70;;;;;;5085986;28;20531;-44
2022/09/20 09:44:26;;;;;;;6.45;5.75;;;22.50;64.70;;;;;;5082622;28;20044;-44
2022/09/20 09:46:53;;;;;;;6.40;5.47;;;22.50;64.70;;;;;;5084634;28;20036;-45
2022/09/20 09:49:20;;;;;;;6.45;5.85;;;22.50;64.70;;;;;;5081850;28;20032;-44
2022/09/20 09:52:04;;;;;;;;;;;22.50;64.60;;;;;;5082800;28;20036;-44
2022/09/20 09:54:36;;;;;;;6.28;5.68;;;22.50;64.60;;;;;;5083275;28;19915;-44
2022/09/20 09:57:39;;;;;;;6.00;5.40;;;22.40;64.60;;;;;;5066766;28;20567;-45
2022/09/20 10:00:16;;;;;;;6.05;5.38;;;22.40;64.50;;;;;;5083642;28;20036;-44
2022/09/20 10:03:06;;;;;;;6.40;5.47;;;22.40;64.50;;;;;;5065100;28;20040;-44
2022/09/20 10:05:53;;;;;;;6.00;5.40;;;22.40;64.50;;;;;;5083396;28;20088;-47
2022/09/20 10:08:44;;;;;;;7.05;6.15;;;22.40;64.60;;;;;;5082881;28;20024;-45
2022/09/20 10:11:27;;;;;;;6.25;5.75;;;22.40;64.50;;;;;;5083518;28;20032;-46
2022/09/20 10:13:54;;;;;;;6.50;5.55;;;22.40;64.60;;;;;;5077726;28;20033;-44
2022/09/20 10:16:51;;;;;;;6.30;5.75;;;22.30;64.50;;;;;;5083136;28;20028;-44
2022/09/20 10:19:32;;;;;;;5.97;5.38;;;22.30;64.40;;;;;;5083056;28;20119;-44
2022/09/20 10:22:45;;;;;;;6.95;5.75;;;22.30;64.50;;;;;;5069349;28;20112;-45
2022/09/20 10:25:38;;;;;;;5.82;5.28;;;22.30;64.40;;;;;;5015082;28;20030;-46
2022/09/20 10:28:07;;;;;;;6.28;5.68;;;22.30;64.50;;;;;;5003629;28;20057;-49
2022/09/20 10:30:46;;;;;;;6.60;5.47;;;22.30;64.50;;;;;;5020531;28;20041;-43
2022/09/20 10:33:44;;;;;;;6.15;5.60;;;22.30;64.50;;;;;;5035801;28;20049;-45
2022/09/20 10:36:25;;;;;;;6.10;5.30;;;22.30;64.50;;;;;;5043563;28;20037;-44
2022/09/20 10:39:02;;;;;;;5.90;5.40;;;22.30;64.60;;;;;;5044279;28;20167;-44
2022/09/20 10:44:59;;;;;;;6.18;5.57;;;22.20;64.50;;;;;;5039909;28;20098;-44
2022/09/20 10:47:32;;;;;;;6.07;5.50;;;22.20;64.60;;;;;;5034069;28;20047;-44
2022/09/20 10:50:03;;;;;;;6.38;5.78;;;22.20;64.60;;;;;;5025559;28;20133;-45
2022/09/20 10:52:51;;;;;;;6.20;5.60;;;22.20;64.60;;;;;;5040015;28;20033;-44
2022/09/20 10:55:24;;;;;;;5.82;5.32;;;22.20;64.60;;;;;;5039965;28;20529;-45
2022/09/20 10:58:08;;;;;;;7.28;5.32;;;22.20;64.60;;;;;;5023260;28;20047;-44
2022/09/20 11:00:49;;;;;;;5.93;5.43;;;22.20;64.60;;;;;;5082285;28;20035;-45
2022/09/20 11:03:33;;;;;;;6.38;5.80;;;22.20;64.60;;;;;;5064206;28;20048;-44
2022/09/20 11:06:37;;;;;;;5.78;5.28;;;22.20;64.60;;;;;;5082676;28;20048;-45
2022/09/20 11:09:03;;;;;;;5.82;5.25;;;22.10;64.60;;;;;;5059207;28;20189;-44
2022/09/20 11:11:33;;;;;;;4.70;4.30;;;22.10;64.60;;;;;;5042853;28;20033;-44
2022/09/20 11:14:13;;;;;;;6.07;5.47;;;22.10;64.60;;;;;;5057464;28;20060;-44
2022/09/20 11:17:08;;;;;;;6.28;5.68;;;22.10;64.60;;;;;;5040734;28;20037;-44
2022/09/20 11:19:47;;;;;;;6.78;5.43;;;22.10;64.60;;;;;;5060864;28;20049;-47
2022/09/20 11:22:24;;;;;;;6.07;5.57;;;22.10;64.60;;;;;;5060715;28;20033;-44
2022/09/20 11:25:10;;;;;;;5.93;5.43;;;22.10;64.60;;;;;;5056634;28;20045;-45
2022/09/20 11:27:45;;;;;;;5.90;5.38;;;22.10;64.60;;;;;;5022982;28;20588;-44
2022/09/20 11:30:21;;;;;;;5.88;5.13;;;22.10;64.60;;;;;;5040888;28;20083;-44
2022/09/20 11:32:51;;;;;;;5.75;5.25;;;22.10;64.70;;;;;;5059760;28;20045;-44
2022/09/20 11:35:25;;;;;;;6.07;5.57;;;22.00;64.60;;;;;;5058559;28;20033;-44
2022/09/20 11:38:10;;;;;;;6.10;5.60;;;22.10;64.70;;;;;;5046041;28;20095;-45
2022/09/20 11:40:52;;;;;;;6.15;5.55;;;22.00;64.60;;;;;;5044410;28;20048;-44
2022/09/20 11:43:18;;;;;;;6.30;5.70;;;22.00;65.30;;;;;;5069179;28;20052;-46
2022/09/20 11:45:53;;;;;;;6.07;5.40;;;22.00;64.60;;;;;;5082644;28;20032;-44
2022/09/20 11:48:39;;;;;;;5.70;5.20;;;22.00;64.60;;;;;;5088105;28;20028;-44
2022/09/20 11:51:27;;;;;;;5.93;5.43;;;22.00;64.60;;;;;;5103826;28;20032;-47
2022/09/20 11:54:13;;;;;;;5.70;5.20;;;22.00;64.70;;;;;;5097309;28;20024;-44
2022/09/20 11:56:39;;;;;;;6.10;5.60;;;22.00;64.70;;;;;;5101083;28;20031;-44
2022/09/20 11:59:07;;;;;;;5.97;5.38;;;22.00;64.70;;;;;;5103515;28;20040;-47
2022/09/20 12:01:37;;;;;;;6.22;5.72;;;22.00;64.70;;;;;;5103546;28;20513;-43
2022/09/20 12:04:25;;;;;;;5.85;5.35;;;22.00;64.80;;;;;;5068548;28;20050;-44
2022/09/20 12:07:17;;;;;;;4.77;4.33;;;21.90;64.70;;;;;;5083365;28;20101;-45
2022/09/20 12:09:45;;;;;;;5.88;5.28;;;21.90;64.70;;;;;;5088438;28;20687;-44
2022/09/20 12:12:43;;;;;;;6.00;5.50;;;21.90;64.80;;;;;;5103259;28;20028;-45
2022/09/20 12:15:21;;;;;;;6.22;5.63;;;21.90;64.80;;;;;;5101919;28;20055;-43
2022/09/20 12:17:48;;;;;;;5.70;5.20;;;21.90;64.80;;;;;;5097511;28;20757;-44
2022/09/20 12:20:50;;;;;;;6.30;5.70;;;21.90;64.80;;;;;;5099509;28;20036;-45
2022/09/20 12:23:39;;;;;;;5.72;5.22;;;21.90;64.80;;;;;;5074742;28;20024;-43
2022/09/20 12:26:34;;;;;;;5.63;5.13;;;21.90;64.80;;;;;;5076692;28;20045;-44
2022/09/20 12:29:08;;;;;;;5.88;5.38;;;21.90;64.80;;;;;;5072790;28;20041;-43
2022/09/20 12:31:37;;;;;;;5.78;5.28;;;21.90;64.90;;;;;;5054521;28;20059;-43
2022/09/20 12:34:12;;;;;;;6.13;5.63;;;21.90;64.90;;;;;;5081218;28;20028;-44
2022/09/20 12:36:54;;;;;;;5.97;5.47;;;21.90;64.90;;;;;;5080982;28;20112;-42
2022/09/20 12:39:26;;;;;;;5.95;5.45;;;21.80;64.90;;;;;;5078904;28;20032;-44
2022/09/20 12:41:59;;;;;;;6.10;5.53;;;21.80;64.90;;;;;;5079775;28;20044;-43
2022/09/20 12:44:49;;;;;;;5.75;5.25;;;21.80;64.90;;;;;;5062202;28;20064;-45
2022/09/20 12:47:23;;;;;;;5.60;5.10;;;21.80;64.90;;;;;;5076806;28;20036;-44
2022/09/20 12:52:57;;;;;;;5.65;5.15;;;21.80;64.90;;;;;;5079086;28;20036;-45
2022/09/20 12:55:26;;;;;;;6.20;5.70;;;21.80;64.90;;;;;;5081490;28;20047;-44
2022/09/20 12:57:56;;;;;;;5.47;4.97;;;21.80;64.90;;;;;;5095384;28;20780;-44
2022/09/20 13:00:44;;;;;;;5.70;5.20;;;21.80;64.90;;;;;;5101449;28;20043;-45
2022/09/20 13:03:28;;;;;;;6.03;5.53;;;21.80;65.00;;;;;;5066662;28;20016;-44
2022/09/20 13:06:12;;;;;;;5.55;5.05;;;21.80;65.00;;;;;;5083731;28;20024;-43
2022/09/20 13:08:41;;;;;;;5.80;5.30;;;21.80;65.00;;;;;;5098170;28;20079;-45
2022/09/20 13:11:17;;;;;;;5.15;4.75;;;21.70;65.00;;;;;;5097864;28;20042;-45
2022/09/20 13:14:03;;;;;;;5.60;5.10;;;21.70;65.00;;;;;;5081355;28;20033;-44
2022/09/20 13:16:38;;;;;;;6.18;5.57;;;21.70;65.00;;;;;;5101668;28;20068;-45
2022/09/20 13:19:17;;;;;;;5.45;5.05;;;21.70;65.00;;;;;;5100964;28;20779;-44
2022/09/20 13:22:04;;;;;;;5.70;5.20;;;21.70;65.10;;;;;;5097859;28;20054;-43
2022/09/20 13:24:37;;;;;;;5.65;5.15;;;21.70;65.10;;;;;;5082821;28;20040;-44
2022/09/20 13:27:15;;;;;;;5.18;4.78;;;21.70;65.10;;;;;;5066458;28;20036;-47
2022/09/20 13:29:41;;;;;;;;;;;21.70;65.20;;;;;;5080208;28;20024;-44
2022/09/20 13:34:19;;;;;;;5.75;5.28;;;21.70;65.20;;;;;;5102783;27;20417;-44
2022/09/20 13:36:45;;;;;;;5.95;5.45;;;21.70;65.20;;;;;;5060428;28;20081;-45
2022/09/20 13:39:31;;;;;;;5.25;4.85;;;21.70;65.20;;;;;;5097678;28;20036;-44
2022/09/20 13:42:03;;;;;;;4.95;4.55;;;21.70;65.30;;;;;;5095607;28;20031;-44
2022/09/20 13:44:33;;;;;;;5.72;5.22;;;21.70;65.30;;;;;;5077790;28;20034;-46
2022/09/20 13:46:59;;;;;;;5.32;4.88;;;21.70;65.30;;;;;;5062457;28;20045;-45
2022/09/20 13:49:30;;;;;;;5.65;5.15;;;21.70;65.30;;;;;;5095442;28;20054;-44
2022/09/20 13:51:56;;;;;;;5.88;5.38;;;21.70;65.30;;;;;;5097561;28;20032;-45
2022/09/20 13:54:30;;;;;;;5.45;4.95;;;21.70;65.30;;;;;;5095947;28;20037;-48
2022/09/20 13:57:04;;;;;;;5.22;4.82;;;21.70;65.50;;;;;;5096736;28;20088;-44